sensor_id;sensor_type;location;lat;lon;timestamp;temperature;humidity
8338;DHT22;4206;48.634;9.516;2023-05-10T00:01:22;13.20;99.90
8338;DHT22;4206;48.634;9.516;2023-05-10T00:03:50;13.10;99.90
8338;DHT22;4206;48.634;9.516;2023-05-10T00:06:18;13.20;99.90
8338;DHT22;4206;48.634;9.516;2023-05-10T00:08:45;13.00;99.90
8338;DHT22;4206;48.634;9.516;2023-05-10T00:11:12;13.00;99.90
8338;DHT22;4206;48.634;9.516;2023-05-10T00:13:40;13.00;99.90
8338;DHT22;4206;48.634;9.516;2023-05-10T00:16:07;13.00;99.90
8338;DHT22;4206;48.634;9.516;2023-05-10T00:18:36;13.00;99.90
8338;DHT22;4206;48.634;9.516;2023-05-10T00:21:04;13.00;99.90
8338;DHT22;4206;48.634;9.516;2023-05-10T00:23:32;13.00;99.90
8338;DHT22;4206;48.634;9.516;2023-05-10T00:25:59;12.90;99.90
8338;DHT22;4206;48.634;9.516;2023-05-10T00:28:28;12.90;99.90
8338;DHT22;4206;48.634;9.516;2023-05-10T00:30:55;12.90;99.90
8338;DHT22;4206;48.634;9.516;2023-05-10T00:33:23;12.90;99.90
8338;DHT22;4206;48.634;9.516;2023-05-10T00:35:51;12.90;99.90
8338;DHT22;4206;48.634;9.516;2023-05-10T00:38:18;12.90;99.90
8338;DHT22;4206;48.634;9.516;2023-05-10T00:40:46;12.90;99.90
8338;DHT22;4206;48.634;9.516;2023-05-10T00:43:13;12.90;99.90
8338;DHT22;4206;48.634;9.516;2023-05-10T00:45:41;12.90;99.90
8338;DHT22;4206;48.634;9.516;2023-05-10T00:48:08;12.90;99.90
8338;DHT22;4206;48.634;9.516;2023-05-10T00:50:35;12.90;99.90
8338;DHT22;4206;48.634;9.516;2023-05-10T00:53:03;12.90;99.90
8338;DHT22;4206;48.634;9.516;2023-05-10T00:55:30;12.90;99.90
8338;DHT22;4206;48.634;9.516;2023-05-10T00:57:57;12.90;99.90
8338;DHT22;4206;48.634;9.516;2023-05-10T01:00:24;12.90;99.90
8338;DHT22;4206;48.634;9.516;2023-05-10T01:02:53;12.90;99.90
8338;DHT22;4206;48.634;9.516;2023-05-10T01:05:23;12.80;99.90
8338;DHT22;4206;48.634;9.516;2023-05-10T01:07:52;12.90;99.90
8338;DHT22;4206;48.634;9.516;2023-05-10T01:10:19;12.90;99.90
8338;DHT22;4206;48.634;9.516;2023-05-10T01:12:47;12.80;99.90
8338;DHT22;4206;48.634;9.516;2023-05-10T01:15:15;12.80;99.90
8338;DHT22;4206;48.634;9.516;2023-05-10T01:17:44;12.70;99.90
8338;DHT22;4206;48.634;9.516;2023-05-10T01:20:13;12.80;99.90
8338;DHT22;4206;48.634;9.516;2023-05-10T01:39:25;12.50;99.90
8338;DHT22;4206;48.634;9.516;2023-05-10T01:47:13;12.40;99.90
8338;DHT22;4206;48.634;9.516;2023-05-10T01:49:50;12.40;99.90
8338;DHT22;4206;48.634;9.516;2023-05-10T01:52:25;12.40;99.90
8338;DHT22;4206;48.634;9.516;2023-05-10T01:55:04;12.40;99.90
8338;DHT22;4206;48.634;9.516;2023-05-10T01:57:40;12.40;99.90
8338;DHT22;4206;48.634;9.516;2023-05-10T02:00:13;12.40;99.90
8338;DHT22;4206;48.634;9.516;2023-05-10T02:02:45;12.40;99.90
8338;DHT22;4206;48.634;9.516;2023-05-10T02:05:15;12.40;99.90
8338;DHT22;4206;48.634;9.516;2023-05-10T02:07:43;12.40;99.90
8338;DHT22;4206;48.634;9.516;2023-05-10T02:10:11;12.40;99.90
8338;DHT22;4206;48.634;9.516;2023-05-10T02:12:51;12.40;99.90
8338;DHT22;4206;48.634;9.516;2023-05-10T02:15:23;12.30;99.90
8338;DHT22;4206;48.634;9.516;2023-05-10T02:18:04;12.30;99.90
8338;DHT22;4206;48.634;9.516;2023-05-10T02:20:35;12.40;99.90
8338;DHT22;4206;48.634;9.516;2023-05-10T02:23:08;12.20;99.90
8338;DHT22;4206;48.634;9.516;2023-05-10T02:25:37;12.20;99.90
8338;DHT22;4206;48.634;9.516;2023-05-10T02:28:07;12.20;99.90
8338;DHT22;4206;48.634;9.516;2023-05-10T02:30:35;12.20;99.90
8338;DHT22;4206;48.634;9.516;2023-05-10T02:33:05;12.20;99.90
8338;DHT22;4206;48.634;9.516;2023-05-10T02:35:32;12.20;99.90
8338;DHT22;4206;48.634;9.516;2023-05-10T02:38:01;12.20;99.90
8338;DHT22;4206;48.634;9.516;2023-05-10T02:40:28;12.40;99.90
8338;DHT22;4206;48.634;9.516;2023-05-10T02:42:57;12.20;99.90
8338;DHT22;4206;48.634;9.516;2023-05-10T02:45:28;12.30;99.90
8338;DHT22;4206;48.634;9.516;2023-05-10T02:47:58;12.30;99.90
8338;DHT22;4206;48.634;9.516;2023-05-10T02:50:28;12.20;99.90
8338;DHT22;4206;48.634;9.516;2023-05-10T02:53:01;12.20;99.90
8338;DHT22;4206;48.634;9.516;2023-05-10T02:55:35;12.30;99.90
8338;DHT22;4206;48.634;9.516;2023-05-10T02:58:03;12.20;99.90
8338;DHT22;4206;48.634;9.516;2023-05-10T04:01:38;11.60;99.90
8338;DHT22;4206;48.634;9.516;2023-05-10T04:04:05;11.80;99.90
8338;DHT22;4206;48.634;9.516;2023-05-10T04:06:32;11.80;99.90
8338;DHT22;4206;48.634;9.516;2023-05-10T04:08:59;11.70;99.90
8338;DHT22;4206;48.634;9.516;2023-05-10T04:11:30;11.80;99.90
8338;DHT22;4206;48.634;9.516;2023-05-10T04:13:58;11.80;99.90
8338;DHT22;4206;48.634;9.516;2023-05-10T04:16:25;11.80;99.90
8338;DHT22;4206;48.634;9.516;2023-05-10T04:18:52;12.00;99.90
8338;DHT22;4206;48.634;9.516;2023-05-10T04:21:19;11.80;99.90
8338;DHT22;4206;48.634;9.516;2023-05-10T04:23:47;11.80;99.90
8338;DHT22;4206;48.634;9.516;2023-05-10T04:26:14;11.90;99.90
8338;DHT22;4206;48.634;9.516;2023-05-10T04:28:42;11.90;99.90
8338;DHT22;4206;48.634;9.516;2023-05-10T04:31:10;11.90;99.90
8338;DHT22;4206;48.634;9.516;2023-05-10T04:33:37;11.90;99.90
8338;DHT22;4206;48.634;9.516;2023-05-10T04:36:05;11.80;99.90
8338;DHT22;4206;48.634;9.516;2023-05-10T04:38:32;11.90;99.90
8338;DHT22;4206;48.634;9.516;2023-05-10T04:41:07;12.00;99.90
8338;DHT22;4206;48.634;9.516;2023-05-10T04:43:36;11.90;99.90
8338;DHT22;4206;48.634;9.516;2023-05-10T04:46:04;12.00;99.90
8338;DHT22;4206;48.634;9.516;2023-05-10T04:48:32;11.90;99.90
8338;DHT22;4206;48.634;9.516;2023-05-10T04:51:00;11.90;99.90
8338;DHT22;4206;48.634;9.516;2023-05-10T04:53:30;11.90;99.90
8338;DHT22;4206;48.634;9.516;2023-05-10T04:56:31;11.90;99.90
8338;DHT22;4206;48.634;9.516;2023-05-10T04:58:59;11.90;99.90
8338;DHT22;4206;48.634;9.516;2023-05-10T05:01:27;12.00;99.90
8338;DHT22;4206;48.634;9.516;2023-05-10T05:03:54;11.90;99.90
8338;DHT22;4206;48.634;9.516;2023-05-10T05:06:22;12.10;99.90
8338;DHT22;4206;48.634;9.516;2023-05-10T05:08:49;12.10;99.90
8338;DHT22;4206;48.634;9.516;2023-05-10T05:11:17;12.10;99.90
8338;DHT22;4206;48.634;9.516;2023-05-10T05:13:45;12.30;99.90
8338;DHT22;4206;48.634;9.516;2023-05-10T05:16:12;12.10;99.90
8338;DHT22;4206;48.634;9.516;2023-05-10T05:18:39;12.10;99.90
8338;DHT22;4206;48.634;9.516;2023-05-10T05:21:15;12.20;99.90
8338;DHT22;4206;48.634;9.516;2023-05-10T05:23:43;12.20;99.90
8338;DHT22;4206;48.634;9.516;2023-05-10T05:26:10;12.00;99.90
8338;DHT22;4206;48.634;9.516;2023-05-10T05:28:40;12.20;99.90
8338;DHT22;4206;48.634;9.516;2023-05-10T05:31:08;12.20;99.90
8338;DHT22;4206;48.634;9.516;2023-05-10T05:33:36;12.30;99.90
8338;DHT22;4206;48.634;9.516;2023-05-10T05:36:04;12.40;99.90
8338;DHT22;4206;48.634;9.516;2023-05-10T05:38:32;12.40;99.90
8338;DHT22;4206;48.634;9.516;2023-05-10T05:40:59;12.40;99.90
8338;DHT22;4206;48.634;9.516;2023-05-10T05:43:27;12.60;99.90
8338;DHT22;4206;48.634;9.516;2023-05-10T05:45:54;12.60;99.90
8338;DHT22;4206;48.634;9.516;2023-05-10T05:48:21;12.60;99.90
8338;DHT22;4206;48.634;9.516;2023-05-10T05:50:49;12.60;99.90
8338;DHT22;4206;48.634;9.516;2023-05-10T05:53:16;12.60;99.90
8338;DHT22;4206;48.634;9.516;2023-05-10T05:55:54;12.50;99.90
8338;DHT22;4206;48.634;9.516;2023-05-10T05:58:22;12.60;99.90
8338;DHT22;4206;48.634;9.516;2023-05-10T06:00:50;12.50;99.90
8338;DHT22;4206;48.634;9.516;2023-05-10T06:03:17;12.30;99.90
8338;DHT22;4206;48.634;9.516;2023-05-10T06:05:44;12.50;99.90
8338;DHT22;4206;48.634;9.516;2023-05-10T06:08:11;12.40;99.90
8338;DHT22;4206;48.634;9.516;2023-05-10T06:10:38;12.40;99.90
8338;DHT22;4206;48.634;9.516;2023-05-10T06:13:05;12.40;99.90
8338;DHT22;4206;48.634;9.516;2023-05-10T06:15:32;12.40;99.90
8338;DHT22;4206;48.634;9.516;2023-05-10T06:17:59;12.30;99.90
8338;DHT22;4206;48.634;9.516;2023-05-10T06:20:26;12.40;99.90
8338;DHT22;4206;48.634;9.516;2023-05-10T06:22:53;12.30;99.90
8338;DHT22;4206;48.634;9.516;2023-05-10T06:25:23;12.40;99.90
8338;DHT22;4206;48.634;9.516;2023-05-10T06:27:50;12.30;99.90
8338;DHT22;4206;48.634;9.516;2023-05-10T06:30:22;12.60;99.90
8338;DHT22;4206;48.634;9.516;2023-05-10T06:32:54;12.70;99.90
8338;DHT22;4206;48.634;9.516;2023-05-10T06:35:21;12.90;99.90
8338;DHT22;4206;48.634;9.516;2023-05-10T06:37:49;12.80;99.90
8338;DHT22;4206;48.634;9.516;2023-05-10T06:40:16;12.80;99.90
8338;DHT22;4206;48.634;9.516;2023-05-10T06:42:43;12.80;99.90
8338;DHT22;4206;48.634;9.516;2023-05-10T06:45:12;12.90;99.90
8338;DHT22;4206;48.634;9.516;2023-05-10T06:47:40;13.00;99.90
8338;DHT22;4206;48.634;9.516;2023-05-10T06:50:09;13.10;99.90
8338;DHT22;4206;48.634;9.516;2023-05-10T06:52:36;13.40;99.90
8338;DHT22;4206;48.634;9.516;2023-05-10T06:55:04;13.20;99.90
8338;DHT22;4206;48.634;9.516;2023-05-10T06:57:32;13.20;99.90
8338;DHT22;4206;48.634;9.516;2023-05-10T06:59:59;13.30;99.90
8338;DHT22;4206;48.634;9.516;2023-05-10T07:02:26;13.40;99.90
8338;DHT22;4206;48.634;9.516;2023-05-10T07:04:54;13.40;99.90
8338;DHT22;4206;48.634;9.516;2023-05-10T07:07:21;13.20;99.90
8338;DHT22;4206;48.634;9.516;2023-05-10T07:09:48;13.00;99.90
8338;DHT22;4206;48.634;9.516;2023-05-10T07:12:16;12.90;99.90
8338;DHT22;4206;48.634;9.516;2023-05-10T07:14:44;13.00;99.90
8338;DHT22;4206;48.634;9.516;2023-05-10T07:17:11;12.90;99.90
8338;DHT22;4206;48.634;9.516;2023-05-10T07:19:38;12.90;99.90
8338;DHT22;4206;48.634;9.516;2023-05-10T07:22:05;13.10;99.90
8338;DHT22;4206;48.634;9.516;2023-05-10T07:24:32;13.00;99.90
8338;DHT22;4206;48.634;9.516;2023-05-10T07:27:00;13.10;99.90
8338;DHT22;4206;48.634;9.516;2023-05-10T07:29:27;13.10;99.90
8338;DHT22;4206;48.634;9.516;2023-05-10T07:31:55;13.10;99.90
8338;DHT22;4206;48.634;9.516;2023-05-10T07:34:24;13.10;99.90
8338;DHT22;4206;48.634;9.516;2023-05-10T07:36:52;13.00;99.90
8338;DHT22;4206;48.634;9.516;2023-05-10T07:39:19;13.10;99.90
8338;DHT22;4206;48.634;9.516;2023-05-10T07:41:55;13.00;99.90
8338;DHT22;4206;48.634;9.516;2023-05-10T07:44:22;13.10;99.90
8338;DHT22;4206;48.634;9.516;2023-05-10T07:46:50;13.20;99.90
8338;DHT22;4206;48.634;9.516;2023-05-10T07:49:17;13.20;99.90
8338;DHT22;4206;48.634;9.516;2023-05-10T07:51:44;13.40;99.90
8338;DHT22;4206;48.634;9.516;2023-05-10T07:54:11;13.30;99.90
8338;DHT22;4206;48.634;9.516;2023-05-10T07:56:39;13.30;99.90
8338;DHT22;4206;48.634;9.516;2023-05-10T07:59:15;13.30;99.90
8338;DHT22;4206;48.634;9.516;2023-05-10T08:01:43;13.50;99.90
8338;DHT22;4206;48.634;9.516;2023-05-10T08:04:10;13.60;99.90
8338;DHT22;4206;48.634;9.516;2023-05-10T08:06:39;13.70;99.90
8338;DHT22;4206;48.634;9.516;2023-05-10T08:09:06;13.70;99.90
8338;DHT22;4206;48.634;9.516;2023-05-10T08:11:33;13.80;99.90
8338;DHT22;4206;48.634;9.516;2023-05-10T08:14:00;14.20;99.90
8338;DHT22;4206;48.634;9.516;2023-05-10T08:16:27;14.20;99.90
8338;DHT22;4206;48.634;9.516;2023-05-10T08:18:55;14.50;99.90
8338;DHT22;4206;48.634;9.516;2023-05-10T08:21:23;14.40;99.90
8338;DHT22;4206;48.634;9.516;2023-05-10T08:23:50;14.70;99.90
8338;DHT22;4206;48.634;9.516;2023-05-10T08:26:17;14.80;99.90
8338;DHT22;4206;48.634;9.516;2023-05-10T08:28:44;14.80;99.90
8338;DHT22;4206;48.634;9.516;2023-05-10T08:31:12;15.00;99.90
8338;DHT22;4206;48.634;9.516;2023-05-10T08:33:39;15.10;99.90
8338;DHT22;4206;48.634;9.516;2023-05-10T08:36:08;15.10;99.90
8338;DHT22;4206;48.634;9.516;2023-05-10T08:38:36;15.00;99.90
8338;DHT22;4206;48.634;9.516;2023-05-10T08:41:05;14.90;99.90
8338;DHT22;4206;48.634;9.516;2023-05-10T08:43:33;14.80;99.90
8338;DHT22;4206;48.634;9.516;2023-05-10T08:46:03;14.80;99.90
8338;DHT22;4206;48.634;9.516;2023-05-10T08:48:34;14.90;99.90
8338;DHT22;4206;48.634;9.516;2023-05-10T08:51:03;15.00;99.90
8338;DHT22;4206;48.634;9.516;2023-05-10T08:53:31;15.00;99.90
8338;DHT22;4206;48.634;9.516;2023-05-10T08:56:01;15.30;99.90
8338;DHT22;4206;48.634;9.516;2023-05-10T08:58:29;15.30;99.90
8338;DHT22;4206;48.634;9.516;2023-05-10T09:00:57;15.50;99.90
8338;DHT22;4206;48.634;9.516;2023-05-10T09:03:25;15.40;99.90
8338;DHT22;4206;48.634;9.516;2023-05-10T09:05:53;15.40;99.90
8338;DHT22;4206;48.634;9.516;2023-05-10T09:08:25;15.40;99.90
8338;DHT22;4206;48.634;9.516;2023-05-10T09:10:53;15.30;99.90
8338;DHT22;4206;48.634;9.516;2023-05-10T09:13:22;15.40;99.90
8338;DHT22;4206;48.634;9.516;2023-05-10T09:15:51;15.30;99.90
8338;DHT22;4206;48.634;9.516;2023-05-10T09:18:18;15.20;99.90
8338;DHT22;4206;48.634;9.516;2023-05-10T09:20:45;15.20;99.90
8338;DHT22;4206;48.634;9.516;2023-05-10T09:23:13;15.20;99.90
8338;DHT22;4206;48.634;9.516;2023-05-10T09:25:42;15.20;99.90
8338;DHT22;4206;48.634;9.516;2023-05-10T09:28:09;15.40;99.90
8338;DHT22;4206;48.634;9.516;2023-05-10T09:30:36;15.70;99.90
8338;DHT22;4206;48.634;9.516;2023-05-10T09:33:03;15.70;99.90
8338;DHT22;4206;48.634;9.516;2023-05-10T09:35:32;15.90;99.90
8338;DHT22;4206;48.634;9.516;2023-05-10T09:38:03;16.20;99.90
8338;DHT22;4206;48.634;9.516;2023-05-10T09:40:31;16.40;99.90
8338;DHT22;4206;48.634;9.516;2023-05-10T09:42:59;16.70;99.90
8338;DHT22;4206;48.634;9.516;2023-05-10T09:45:29;17.00;99.90
8338;DHT22;4206;48.634;9.516;2023-05-10T09:47:57;17.40;99.90
8338;DHT22;4206;48.634;9.516;2023-05-10T09:50:26;17.50;99.90
8338;DHT22;4206;48.634;9.516;2023-05-10T09:52:55;17.20;99.90
8338;DHT22;4206;48.634;9.516;2023-05-10T09:55:26;17.20;99.90
8338;DHT22;4206;48.634;9.516;2023-05-10T09:58:04;17.30;99.90
8338;DHT22;4206;48.634;9.516;2023-05-10T10:00:37;17.20;99.90
8338;DHT22;4206;48.634;9.516;2023-05-10T10:03:04;17.40;99.90
8338;DHT22;4206;48.634;9.516;2023-05-10T10:05:34;17.30;99.90
8338;DHT22;4206;48.634;9.516;2023-05-10T10:08:03;17.60;99.90
8338;DHT22;4206;48.634;9.516;2023-05-10T10:10:32;17.60;99.90
8338;DHT22;4206;48.634;9.516;2023-05-10T10:13:00;17.40;99.90
8338;DHT22;4206;48.634;9.516;2023-05-10T10:15:26;17.70;99.90
8338;DHT22;4206;48.634;9.516;2023-05-10T10:17:55;17.90;99.90
8338;DHT22;4206;48.634;9.516;2023-05-10T10:20:24;18.00;99.90
8338;DHT22;4206;48.634;9.516;2023-05-10T10:22:53;18.10;99.90
8338;DHT22;4206;48.634;9.516;2023-05-10T10:25:20;17.90;99.90
8338;DHT22;4206;48.634;9.516;2023-05-10T10:35:58;17.50;99.90
8338;DHT22;4206;48.634;9.516;2023-05-10T10:38:25;17.20;99.90
8338;DHT22;4206;48.634;9.516;2023-05-10T10:41:09;17.00;99.90
8338;DHT22;4206;48.634;9.516;2023-05-10T10:43:37;16.80;99.90
8338;DHT22;4206;48.634;9.516;2023-05-10T10:46:20;16.80;99.90
8338;DHT22;4206;48.634;9.516;2023-05-10T10:49:08;16.50;99.90
8338;DHT22;4206;48.634;9.516;2023-05-10T10:51:38;16.30;99.90
8338;DHT22;4206;48.634;9.516;2023-05-10T10:54:09;16.00;99.90
8338;DHT22;4206;48.634;9.516;2023-05-10T10:56:37;15.80;99.90
8338;DHT22;4206;48.634;9.516;2023-05-10T10:59:04;15.90;99.90
8338;DHT22;4206;48.634;9.516;2023-05-10T11:01:34;15.80;99.90
8338;DHT22;4206;48.634;9.516;2023-05-10T11:04:16;16.00;99.90
8338;DHT22;4206;48.634;9.516;2023-05-10T11:06:44;16.50;99.90
8338;DHT22;4206;48.634;9.516;2023-05-10T11:09:11;17.00;99.90
8338;DHT22;4206;48.634;9.516;2023-05-10T11:11:54;17.30;99.90
8338;DHT22;4206;48.634;9.516;2023-05-10T11:14:22;17.90;99.90
8338;DHT22;4206;48.634;9.516;2023-05-10T11:16:49;18.00;99.90
8338;DHT22;4206;48.634;9.516;2023-05-10T11:19:17;18.30;99.90
8338;DHT22;4206;48.634;9.516;2023-05-10T11:21:50;18.10;99.90
8338;DHT22;4206;48.634;9.516;2023-05-10T11:24:22;18.00;99.90
8338;DHT22;4206;48.634;9.516;2023-05-10T11:26:50;17.90;99.90
8338;DHT22;4206;48.634;9.516;2023-05-10T11:29:18;17.70;99.90
8338;DHT22;4206;48.634;9.516;2023-05-10T11:31:46;17.50;99.90
8338;DHT22;4206;48.634;9.516;2023-05-10T11:34:29;17.40;99.90
8338;DHT22;4206;48.634;9.516;2023-05-10T11:36:57;16.70;99.90
8338;DHT22;4206;48.634;9.516;2023-05-10T11:39:27;16.10;99.90
8338;DHT22;4206;48.634;9.516;2023-05-10T11:41:55;15.70;99.90
8338;DHT22;4206;48.634;9.516;2023-05-10T11:44:22;15.40;99.90
8338;DHT22;4206;48.634;9.516;2023-05-10T11:46:49;15.00;99.90
8338;DHT22;4206;48.634;9.516;2023-05-10T11:49:17;14.90;99.90
8338;DHT22;4206;48.634;9.516;2023-05-10T11:51:44;14.80;99.90
8338;DHT22;4206;48.634;9.516;2023-05-10T11:54:11;14.80;99.90
8338;DHT22;4206;48.634;9.516;2023-05-10T11:56:39;14.80;99.90
8338;DHT22;4206;48.634;9.516;2023-05-10T11:59:07;14.40;99.90
8338;DHT22;4206;48.634;9.516;2023-05-10T12:01:35;14.20;99.90
8338;DHT22;4206;48.634;9.516;2023-05-10T12:04:02;14.10;99.90
8338;DHT22;4206;48.634;9.516;2023-05-10T12:06:32;14.10;99.90
8338;DHT22;4206;48.634;9.516;2023-05-10T12:09:07;14.00;99.90
8338;DHT22;4206;48.634;9.516;2023-05-10T12:11:38;13.80;99.90
8338;DHT22;4206;48.634;9.516;2023-05-10T12:14:11;13.80;99.90
8338;DHT22;4206;48.634;9.516;2023-05-10T12:16:43;13.60;99.90
8338;DHT22;4206;48.634;9.516;2023-05-10T12:19:18;13.60;99.90
8338;DHT22;4206;48.634;9.516;2023-05-10T12:21:48;13.50;99.90
8338;DHT22;4206;48.634;9.516;2023-05-10T12:24:15;13.40;99.90
8338;DHT22;4206;48.634;9.516;2023-05-10T12:26:45;13.30;99.90
8338;DHT22;4206;48.634;9.516;2023-05-10T12:29:14;13.10;99.90
8338;DHT22;4206;48.634;9.516;2023-05-10T12:34:26;13.00;99.90
8338;DHT22;4206;48.634;9.516;2023-05-10T12:36:53;12.80;99.90
8338;DHT22;4206;48.634;9.516;2023-05-10T12:39:21;12.80;99.90
8338;DHT22;4206;48.634;9.516;2023-05-10T12:41:48;12.80;99.90
8338;DHT22;4206;48.634;9.516;2023-05-10T12:44:15;12.90;99.90
8338;DHT22;4206;48.634;9.516;2023-05-10T12:46:42;13.00;99.90
8338;DHT22;4206;48.634;9.516;2023-05-10T12:49:09;13.00;99.90
8338;DHT22;4206;48.634;9.516;2023-05-10T12:51:38;13.20;99.90
8338;DHT22;4206;48.634;9.516;2023-05-10T12:54:05;13.40;99.90
8338;DHT22;4206;48.634;9.516;2023-05-10T12:56:32;13.60;99.90
8338;DHT22;4206;48.634;9.516;2023-05-10T12:59:01;13.90;99.90
8338;DHT22;4206;48.634;9.516;2023-05-10T13:01:28;14.20;99.90
8338;DHT22;4206;48.634;9.516;2023-05-10T13:03:55;14.10;99.90
8338;DHT22;4206;48.634;9.516;2023-05-10T13:06:22;14.20;99.90
8338;DHT22;4206;48.634;9.516;2023-05-10T13:08:49;14.30;99.90
8338;DHT22;4206;48.634;9.516;2023-05-10T13:11:16;14.10;99.90
8338;DHT22;4206;48.634;9.516;2023-05-10T13:13:43;14.20;99.90
8338;DHT22;4206;48.634;9.516;2023-05-10T13:16:11;14.20;99.90
8338;DHT22;4206;48.634;9.516;2023-05-10T13:18:38;14.40;99.90
8338;DHT22;4206;48.634;9.516;2023-05-10T13:21:05;14.40;99.90
8338;DHT22;4206;48.634;9.516;2023-05-10T13:23:32;14.40;99.90
8338;DHT22;4206;48.634;9.516;2023-05-10T13:25:59;14.30;99.90
8338;DHT22;4206;48.634;9.516;2023-05-10T13:28:26;14.20;99.90
8338;DHT22;4206;48.634;9.516;2023-05-10T13:30:53;14.30;99.90
8338;DHT22;4206;48.634;9.516;2023-05-10T13:33:22;14.40;99.90
8338;DHT22;4206;48.634;9.516;2023-05-10T13:35:49;14.70;99.90
8338;DHT22;4206;48.634;9.516;2023-05-10T13:38:18;14.90;99.90
8338;DHT22;4206;48.634;9.516;2023-05-10T13:40:48;15.20;99.90
8338;DHT22;4206;48.634;9.516;2023-05-10T13:43:19;15.60;99.90
8338;DHT22;4206;48.634;9.516;2023-05-10T13:45:47;15.60;99.90
8338;DHT22;4206;48.634;9.516;2023-05-10T13:48:13;15.70;99.90
8338;DHT22;4206;48.634;9.516;2023-05-10T13:50:40;15.90;99.90
8338;DHT22;4206;48.634;9.516;2023-05-10T13:53:07;15.60;99.90
8338;DHT22;4206;48.634;9.516;2023-05-10T13:55:34;15.60;99.90
8338;DHT22;4206;48.634;9.516;2023-05-10T13:58:02;15.70;99.90
8338;DHT22;4206;48.634;9.516;2023-05-10T14:00:29;16.00;99.90
8338;DHT22;4206;48.634;9.516;2023-05-10T14:02:58;16.00;99.90
8338;DHT22;4206;48.634;9.516;2023-05-10T14:05:25;16.30;99.90
8338;DHT22;4206;48.634;9.516;2023-05-10T14:07:53;16.60;99.90
8338;DHT22;4206;48.634;9.516;2023-05-10T14:10:20;16.70;99.90
8338;DHT22;4206;48.634;9.516;2023-05-10T14:12:47;16.90;99.90
8338;DHT22;4206;48.634;9.516;2023-05-10T14:15:14;16.80;99.90
8338;DHT22;4206;48.634;9.516;2023-05-10T14:17:42;17.00;99.90
8338;DHT22;4206;48.634;9.516;2023-05-10T14:20:09;16.70;99.90
8338;DHT22;4206;48.634;9.516;2023-05-10T14:22:36;16.60;99.90
8338;DHT22;4206;48.634;9.516;2023-05-10T14:25:03;16.70;99.90
8338;DHT22;4206;48.634;9.516;2023-05-10T14:27:31;16.90;99.90
8338;DHT22;4206;48.634;9.516;2023-05-10T14:29:58;17.00;99.90
8338;DHT22;4206;48.634;9.516;2023-05-10T14:32:25;16.60;99.90
8338;DHT22;4206;48.634;9.516;2023-05-10T14:34:54;16.50;99.90
8338;DHT22;4206;48.634;9.516;2023-05-10T14:37:20;16.30;99.90
8338;DHT22;4206;48.634;9.516;2023-05-10T14:39:48;16.10;99.90
8338;DHT22;4206;48.634;9.516;2023-05-10T14:42:16;16.10;99.90
8338;DHT22;4206;48.634;9.516;2023-05-10T14:44:42;16.10;99.90
8338;DHT22;4206;48.634;9.516;2023-05-10T14:47:09;16.20;99.90
8338;DHT22;4206;48.634;9.516;2023-05-10T14:49:37;16.20;99.90
8338;DHT22;4206;48.634;9.516;2023-05-10T14:52:04;16.10;99.90
8338;DHT22;4206;48.634;9.516;2023-05-10T14:54:31;15.90;99.90
8338;DHT22;4206;48.634;9.516;2023-05-10T14:57:00;16.00;99.90
8338;DHT22;4206;48.634;9.516;2023-05-10T14:59:27;16.10;99.90
8338;DHT22;4206;48.634;9.516;2023-05-10T15:01:54;16.00;99.90
8338;DHT22;4206;48.634;9.516;2023-05-10T15:04:22;16.20;99.90
8338;DHT22;4206;48.634;9.516;2023-05-10T15:06:51;16.00;99.90
8338;DHT22;4206;48.634;9.516;2023-05-10T15:09:18;16.00;99.90
8338;DHT22;4206;48.634;9.516;2023-05-10T15:11:45;15.90;99.90
8338;DHT22;4206;48.634;9.516;2023-05-10T15:14:12;15.90;99.90
8338;DHT22;4206;48.634;9.516;2023-05-10T15:16:39;16.00;99.90
8338;DHT22;4206;48.634;9.516;2023-05-10T15:19:06;16.00;99.90
8338;DHT22;4206;48.634;9.516;2023-05-10T15:21:33;16.10;99.90
8338;DHT22;4206;48.634;9.516;2023-05-10T15:24:05;16.00;99.90
8338;DHT22;4206;48.634;9.516;2023-05-10T15:26:32;15.90;99.90
8338;DHT22;4206;48.634;9.516;2023-05-10T15:28:59;15.70;99.90
8338;DHT22;4206;48.634;9.516;2023-05-10T15:31:27;15.70;99.90
8338;DHT22;4206;48.634;9.516;2023-05-10T15:33:57;15.60;99.90
8338;DHT22;4206;48.634;9.516;2023-05-10T15:36:26;15.90;99.90
8338;DHT22;4206;48.634;9.516;2023-05-10T15:38:56;15.90;99.90
8338;DHT22;4206;48.634;9.516;2023-05-10T15:41:22;15.80;99.90
8338;DHT22;4206;48.634;9.516;2023-05-10T15:43:50;15.90;99.90
8338;DHT22;4206;48.634;9.516;2023-05-10T15:46:17;16.00;99.90
8338;DHT22;4206;48.634;9.516;2023-05-10T15:48:44;16.00;99.90
8338;DHT22;4206;48.634;9.516;2023-05-10T15:51:11;16.00;99.90
8338;DHT22;4206;48.634;9.516;2023-05-10T15:53:38;15.90;99.90
8338;DHT22;4206;48.634;9.516;2023-05-10T15:56:18;16.00;99.90
8338;DHT22;4206;48.634;9.516;2023-05-10T15:58:45;16.00;99.90
8338;DHT22;4206;48.634;9.516;2023-05-10T16:01:12;16.00;99.90
8338;DHT22;4206;48.634;9.516;2023-05-10T16:03:39;15.90;99.90
8338;DHT22;4206;48.634;9.516;2023-05-10T16:06:07;15.90;99.90
8338;DHT22;4206;48.634;9.516;2023-05-10T16:08:34;15.90;99.90
8338;DHT22;4206;48.634;9.516;2023-05-10T16:11:02;15.90;99.90
8338;DHT22;4206;48.634;9.516;2023-05-10T16:13:29;15.80;99.90
8338;DHT22;4206;48.634;9.516;2023-05-10T16:15:56;15.70;99.90
8338;DHT22;4206;48.634;9.516;2023-05-10T16:18:23;15.70;99.90
8338;DHT22;4206;48.634;9.516;2023-05-10T16:20:52;15.70;99.90
8338;DHT22;4206;48.634;9.516;2023-05-10T16:23:19;15.80;99.90
8338;DHT22;4206;48.634;9.516;2023-05-10T16:25:46;15.90;99.90
8338;DHT22;4206;48.634;9.516;2023-05-10T16:28:13;15.70;99.90
8338;DHT22;4206;48.634;9.516;2023-05-10T16:30:41;15.60;99.90
8338;DHT22;4206;48.634;9.516;2023-05-10T16:33:08;15.40;99.90
8338;DHT22;4206;48.634;9.516;2023-05-10T16:35:34;15.40;99.90
8338;DHT22;4206;48.634;9.516;2023-05-10T16:38:01;15.40;99.90
8338;DHT22;4206;48.634;9.516;2023-05-10T16:40:31;15.40;99.90
8338;DHT22;4206;48.634;9.516;2023-05-10T16:42:58;15.30;99.90
8338;DHT22;4206;48.634;9.516;2023-05-10T16:45:25;15.30;99.90
8338;DHT22;4206;48.634;9.516;2023-05-10T16:47:53;15.40;99.90
8338;DHT22;4206;48.634;9.516;2023-05-10T16:50:20;15.10;99.90
8338;DHT22;4206;48.634;9.516;2023-05-10T16:52:47;15.00;99.90
8338;DHT22;4206;48.634;9.516;2023-05-10T16:55:14;15.10;99.90
8338;DHT22;4206;48.634;9.516;2023-05-10T16:57:41;15.00;99.90
8338;DHT22;4206;48.634;9.516;2023-05-10T17:00:08;15.00;99.90
8338;DHT22;4206;48.634;9.516;2023-05-10T17:02:37;15.00;99.90
8338;DHT22;4206;48.634;9.516;2023-05-10T17:05:05;15.10;99.90
8338;DHT22;4206;48.634;9.516;2023-05-10T17:07:32;15.10;99.90
8338;DHT22;4206;48.634;9.516;2023-05-10T17:09:59;15.20;99.90
8338;DHT22;4206;48.634;9.516;2023-05-10T17:12:26;15.20;99.90
8338;DHT22;4206;48.634;9.516;2023-05-10T17:14:53;15.20;99.90
8338;DHT22;4206;48.634;9.516;2023-05-10T17:17:20;15.10;99.90
8338;DHT22;4206;48.634;9.516;2023-05-10T17:19:47;15.00;99.90
8338;DHT22;4206;48.634;9.516;2023-05-10T17:22:14;14.90;99.90
8338;DHT22;4206;48.634;9.516;2023-05-10T17:24:42;14.90;99.90
8338;DHT22;4206;48.634;9.516;2023-05-10T17:27:08;14.80;99.90
8338;DHT22;4206;48.634;9.516;2023-05-10T17:29:36;14.80;99.90
8338;DHT22;4206;48.634;9.516;2023-05-10T17:32:02;14.80;99.90
8338;DHT22;4206;48.634;9.516;2023-05-10T17:34:29;14.80;99.90
8338;DHT22;4206;48.634;9.516;2023-05-10T17:36:56;14.80;99.90
8338;DHT22;4206;48.634;9.516;2023-05-10T17:39:23;14.70;99.90
8338;DHT22;4206;48.634;9.516;2023-05-10T17:41:50;14.60;99.90
8338;DHT22;4206;48.634;9.516;2023-05-10T17:44:17;14.40;99.90